Time;durP1;ratioP1;P1;durP2;ratioP2;P2;SDS_P1;SDS_P2;PMS_P1;PMS_P2;Temp;Humidity;BMP_temperature;BMP_pressure;BME280_temperature;BME280_humidity;BME280_pressure;Samples;Min_cycle;Max_cycle;Signal;HPM_P1;HPM_P2
2021/06/29 00:00:53;;;;;;;9.18;5.60;;;19.60;99.90;;;;;;4997804;28;20425;-94
2021/06/29 00:03:20;;;;;;;11.15;5.25;;;19.60;99.90;;;;;;4999203;28;20437;-94
2021/06/29 00:05:49;;;;;;;14.10;5.40;;;19.60;99.90;;;;;;4998348;28;20437;-94
2021/06/29 00:08:16;;;;;;;6.82;5.00;;;19.60;99.90;;;;;;4998243;28;20810;-95
2021/06/29 00:10:44;;;;;;;7.65;5.20;;;19.50;99.90;;;;;;4999020;28;20439;-95
2021/06/29 00:13:12;;;;;;;8.13;5.37;;;19.60;99.90;;;;;;4998673;28;20467;-94
2021/06/29 00:15:40;;;;;;;8.27;5.20;;;19.50;99.90;;;;;;5002370;28;20421;-96
2021/06/29 00:18:07;;;;;;;8.60;5.20;;;19.50;99.90;;;;;;4998031;28;20431;-94
2021/06/29 00:20:35;;;;;;;8.00;5.25;;;19.50;99.90;;;;;;4998013;28;20425;-94
2021/06/29 00:23:03;;;;;;;8.45;5.28;;;19.50;99.90;;;;;;4999023;28;20983;-95
2021/06/29 00:25:30;;;;;;;9.05;5.35;;;19.50;99.90;;;;;;4996963;28;20953;-94
2021/06/29 00:27:58;;;;;;;8.70;5.20;;;19.50;99.90;;;;;;4997420;28;20424;-94
2021/06/29 00:30:26;;;;;;;7.97;5.47;;;19.50;99.90;;;;;;5000127;28;20432;-95
2021/06/29 00:32:54;;;;;;;6.72;5.28;;;19.50;99.90;;;;;;4997919;28;20420;-94
2021/06/29 00:35:21;;;;;;;8.40;5.30;;;19.40;99.90;;;;;;4997843;28;20429;-95
2021/06/29 00:37:49;;;;;;;8.18;5.38;;;19.50;99.90;;;;;;5010977;28;20424;-94
2021/06/29 00:40:16;;;;;;;6.68;5.13;;;19.40;99.90;;;;;;5005521;28;20431;-95
2021/06/29 00:42:44;;;;;;;6.78;5.10;;;19.40;99.90;;;;;;4998629;28;20606;-95
2021/06/29 00:45:12;;;;;;;6.47;5.10;;;19.40;99.90;;;;;;4997728;28;20455;-95
2021/06/29 00:47:42;;;;;;;8.25;5.15;;;19.40;99.90;;;;;;4998786;28;20479;-95
2021/06/29 00:50:10;;;;;;;7.32;5.28;;;19.50;99.90;;;;;;4996782;28;20427;-93
2021/06/29 00:52:40;;;;;;;6.17;5.00;;;19.50;99.90;;;;;;4997494;28;20500;-95
2021/06/29 00:55:10;;;;;;;7.32;5.22;;;19.50;99.90;;;;;;4997663;28;20439;-96
2021/06/29 00:57:37;;;;;;;9.65;5.00;;;19.50;99.90;;;;;;4998526;28;20431;-95
2021/06/29 01:00:08;;;;;;;7.85;5.50;;;19.50;99.90;;;;;;4999387;28;20431;-96
2021/06/29 01:02:36;;;;;;;7.68;5.35;;;19.50;99.90;;;;;;5001530;28;20420;-95
2021/06/29 01:05:06;;;;;;;7.70;5.10;;;19.50;99.90;;;;;;5002331;28;20483;-96
2021/06/29 01:07:33;;;;;;;9.02;5.10;;;19.50;99.90;;;;;;5003131;28;20483;-95
2021/06/29 01:10:04;;;;;;;10.23;5.10;;;19.50;99.90;;;;;;5001099;28;20503;-94
2021/06/29 01:12:35;;;;;;;6.63;5.10;;;19.60;99.90;;;;;;5001562;28;20459;-94
2021/06/29 01:15:05;;;;;;;9.77;5.20;;;19.60;99.90;;;;;;5002511;28;20440;-94
2021/06/29 01:18:01;;;;;;;11.82;4.88;;;19.50;99.90;;;;;;5004337;28;20480;-96
2021/06/29 01:20:31;;;;;;;9.48;4.93;;;19.60;99.90;;;;;;4988609;28;20428;-94
2021/06/29 01:23:20;;;;;;;8.00;4.57;;;19.70;99.90;;;;;;5001515;28;20424;-93
2021/06/29 01:26:02;;;;;;;9.67;4.80;;;19.70;99.90;;;;;;5001301;28;20413;-94
2021/06/29 01:28:32;;;;;;;5.95;5.00;;;19.80;99.90;;;;;;5002186;28;20417;-93
2021/06/29 01:31:06;;;;;;;6.53;5.17;;;19.70;99.90;;;;;;5000930;28;20420;-94
2021/06/29 01:33:33;;;;;;;6.63;5.07;;;19.70;99.90;;;;;;5000817;28;20849;-94
2021/06/29 01:36:00;;;;;;;8.50;5.20;;;19.60;99.90;;;;;;5000984;28;20921;-94
2021/06/29 01:38:28;;;;;;;6.15;4.90;;;19.50;99.90;;;;;;5001544;28;20449;-93
2021/06/29 01:40:55;;;;;;;11.02;5.28;;;19.50;99.90;;;;;;5002972;28;20425;-93
2021/06/29 01:43:34;;;;;;;8.45;5.40;;;19.40;99.90;;;;;;5001182;28;20515;-94
2021/06/29 01:46:09;;;;;;;9.55;5.40;;;19.30;99.90;;;;;;5017373;28;20513;-93
2021/06/29 01:48:36;;;;;;;6.15;5.55;;;19.30;99.90;;;;;;4999699;28;20512;-94
2021/06/29 01:51:04;;;;;;;8.07;5.15;;;19.30;99.90;;;;;;5001282;28;20512;-93
2021/06/29 01:53:31;;;;;;;11.45;5.60;;;19.20;99.90;;;;;;4999913;28;20432;-94
2021/06/29 01:55:58;;;;;;;12.27;5.63;;;19.10;99.90;;;;;;4999871;28;20957;-94
2021/06/29 01:58:27;;;;;;;10.93;6.00;;;19.10;99.90;;;;;;4999549;28;20421;-94
2021/06/29 02:00:55;;;;;;;8.00;5.72;;;19.10;99.90;;;;;;5000688;28;20439;-94
2021/06/29 02:03:22;;;;;;;7.75;5.80;;;19.00;99.90;;;;;;4999441;28;20428;-94
2021/06/29 02:05:49;;;;;;;9.73;6.00;;;18.90;99.90;;;;;;5003704;28;20428;-94
2021/06/29 02:08:16;;;;;;;7.60;5.70;;;18.80;99.90;;;;;;5002793;28;20432;-93
2021/06/29 02:10:43;;;;;;;8.90;5.83;;;18.80;99.90;;;;;;4999647;28;20929;-94
2021/06/29 02:13:10;;;;;;;12.75;5.97;;;18.80;99.90;;;;;;5001035;28;20424;-95
2021/06/29 02:15:38;;;;;;;9.27;5.90;;;18.70;99.90;;;;;;5003116;28;20425;-93
2021/06/29 02:18:05;;;;;;;9.40;6.07;;;18.70;99.90;;;;;;5004064;28;20443;-94
2021/06/29 02:20:32;;;;;;;11.93;6.32;;;18.70;99.90;;;;;;5001270;28;20493;-93
2021/06/29 02:22:59;;;;;;;11.55;5.40;;;18.70;99.90;;;;;;5001088;28;20420;-93
2021/06/29 02:25:26;;;;;;;9.32;5.70;;;18.70;99.90;;;;;;4999376;28;20428;-93
2021/06/29 02:27:53;;;;;;;7.82;6.00;;;18.60;99.90;;;;;;4999638;28;20440;-94
2021/06/29 02:30:21;;;;;;;7.82;5.82;;;18.70;99.90;;;;;;5001777;28;20431;-94
2021/06/29 02:32:48;;;;;;;7.97;6.00;;;18.60;99.90;;;;;;5000579;28;20425;-93
2021/06/29 02:35:15;;;;;;;7.63;6.00;;;18.60;99.90;;;;;;5000710;28;20437;-94
2021/06/29 02:37:42;;;;;;;11.35;5.63;;;18.50;99.90;;;;;;5007834;23;20436;-93
2021/06/29 02:40:10;;;;;;;9.65;5.70;;;18.40;99.90;;;;;;4998293;28;20424;-93
2021/06/29 02:42:38;;;;;;;9.40;5.63;;;18.40;99.90;;;;;;4998723;28;20424;-93
2021/06/29 02:45:07;;;;;;;9.73;5.22;;;18.40;99.90;;;;;;5000063;28;20433;-94
2021/06/29 02:47:37;;;;;;;9.45;5.00;;;18.40;99.90;;;;;;5000310;28;20439;-94
2021/06/29 02:50:08;;;;;;;11.10;5.13;;;18.40;99.90;;;;;;4999230;28;20487;-95
2021/06/29 02:52:36;;;;;;;8.73;5.00;;;18.40;99.90;;;;;;5008677;23;20424;-93
2021/06/29 02:55:06;;;;;;;9.38;5.57;;;18.30;99.90;;;;;;5005793;23;20420;-94
2021/06/29 02:57:33;;;;;;;8.73;5.10;;;18.10;99.90;;;;;;5000207;28;20396;-93
2021/06/29 03:00:01;;;;;;;8.93;4.97;;;18.10;99.90;;;;;;5007326;23;20432;-94
2021/06/29 03:02:28;;;;;;;12.93;5.10;;;18.10;99.90;;;;;;4998349;28;20416;-93
2021/06/29 03:04:55;;;;;;;9.52;5.40;;;18.00;99.90;;;;;;5000344;28;20428;-93
2021/06/29 03:07:22;;;;;;;7.73;5.23;;;18.00;99.90;;;;;;4998794;28;20441;-94
2021/06/29 03:09:49;;;;;;;12.03;5.17;;;18.00;99.90;;;;;;4999472;28;20429;-94
2021/06/29 03:12:16;;;;;;;7.07;4.75;;;18.00;99.90;;;;;;4999963;28;20436;-93
2021/06/29 03:14:43;;;;;;;13.10;5.20;;;18.10;99.90;;;;;;4998139;28;20917;-94
2021/06/29 03:17:10;;;;;;;12.55;5.03;;;18.00;99.90;;;;;;5025451;23;20443;-94
2021/06/29 03:19:37;;;;;;;7.77;5.10;;;17.90;99.90;;;;;;5001844;28;20431;-94
2021/06/29 03:22:05;;;;;;;10.05;5.28;;;17.90;99.90;;;;;;4999398;28;20441;-94
2021/06/29 03:24:32;;;;;;;8.90;5.03;;;17.90;99.90;;;;;;4998627;28;20952;-94
2021/06/29 03:27:00;;;;;;;10.13;5.43;;;17.80;99.90;;;;;;5000662;28;20429;-94
2021/06/29 03:29:27;;;;;;;14.57;5.13;;;17.70;99.90;;;;;;4999848;28;20914;-93
2021/06/29 03:31:54;;;;;;;11.77;5.23;;;17.70;99.90;;;;;;4998591;28;20425;-94
2021/06/29 03:34:24;;;;;;;10.88;5.47;;;17.90;99.90;;;;;;4998145;28;20469;-94
2021/06/29 03:36:51;;;;;;;9.00;5.35;;;17.90;99.90;;;;;;4997790;28;20427;-94
2021/06/29 03:39:18;;;;;;;10.35;5.55;;;17.80;99.90;;;;;;4997909;28;20432;-93
2021/06/29 03:41:50;;;;;;;12.30;5.77;;;17.80;99.90;;;;;;4999679;28;21081;-93
2021/06/29 03:44:17;;;;;;;10.05;5.60;;;17.80;99.90;;;;;;4997549;28;20439;-94
2021/06/29 03:46:44;;;;;;;9.50;5.30;;;17.80;99.90;;;;;;4997993;28;20427;-93
2021/06/29 03:49:12;;;;;;;8.07;5.17;;;17.70;99.90;;;;;;4998167;28;20413;-93
2021/06/29 03:51:39;;;;;;;11.00;5.22;;;17.60;99.90;;;;;;4997797;28;20432;-94
2021/06/29 03:54:06;;;;;;;10.63;5.68;;;17.60;99.90;;;;;;5007633;28;20409;-93
2021/06/29 03:56:33;;;;;;;9.10;5.07;;;17.50;99.90;;;;;;5010161;28;20420;-93
2021/06/29 03:59:06;;;;;;;7.95;5.15;;;17.50;99.90;;;;;;4998220;28;20424;-93
2021/06/29 04:01:34;;;;;;;7.53;4.20;;;17.50;99.90;;;;;;4997916;28;20417;-94
2021/06/29 04:04:01;;;;;;;6.70;3.92;;;17.40;99.90;;;;;;4998027;28;20429;-94
2021/06/29 04:06:30;;;;;;;8.75;3.83;;;17.40;99.90;;;;;;4997609;28;20451;-93
2021/06/29 04:08:58;;;;;;;6.25;3.72;;;17.30;99.90;;;;;;4997006;28;20424;-94
2021/06/29 04:11:27;;;;;;;9.20;3.50;;;17.30;99.90;;;;;;4996993;28;20427;-93
2021/06/29 04:13:55;;;;;;;10.32;3.20;;;17.30;99.90;;;;;;4996764;28;20433;-93
2021/06/29 04:16:23;;;;;;;8.27;3.40;;;17.30;99.90;;;;;;4997127;28;20952;-93
2021/06/29 04:18:50;;;;;;;7.25;3.30;;;17.30;99.90;;;;;;4997121;28;20462;-93
2021/06/29 04:21:17;;;;;;;6.80;2.90;;;17.30;99.90;;;;;;4997042;28;20428;-93
2021/06/29 04:23:44;;;;;;;5.97;2.80;;;17.20;99.90;;;;;;4997367;28;20412;-93
2021/06/29 04:26:13;;;;;;;6.40;2.95;;;17.20;99.90;;;;;;4997240;28;20432;-94
2021/06/29 04:28:40;;;;;;;6.93;2.95;;;17.20;99.90;;;;;;4996896;28;20428;-94
2021/06/29 04:31:08;;;;;;;5.72;3.00;;;17.20;99.90;;;;;;4997779;28;20515;-94
2021/06/29 04:33:35;;;;;;;4.57;2.85;;;17.20;99.90;;;;;;4996999;28;20416;-93
2021/06/29 04:36:04;;;;;;;5.97;2.60;;;17.20;99.90;;;;;;5000308;28;20437;-93
2021/06/29 04:38:31;;;;;;;6.28;3.15;;;17.20;99.90;;;;;;5001075;28;20428;-94
2021/06/29 04:40:58;;;;;;;3.97;2.53;;;17.10;99.90;;;;;;5000756;28;20435;-94
2021/06/29 04:43:25;;;;;;;8.02;3.00;;;17.00;99.90;;;;;;5000958;28;20408;-93
2021/06/29 04:45:52;;;;;;;8.23;3.03;;;16.90;99.90;;;;;;5001442;28;20929;-93
2021/06/29 04:48:19;;;;;;;4.95;3.03;;;16.90;99.90;;;;;;5000700;28;20432;-93
2021/06/29 04:50:46;;;;;;;4.63;2.55;;;16.90;99.90;;;;;;5001294;28;20431;-94
2021/06/29 04:53:13;;;;;;;4.57;2.97;;;16.80;99.90;;;;;;5000355;28;20432;-94
2021/06/29 04:55:40;;;;;;;3.53;2.90;;;16.80;99.90;;;;;;5000181;28;20467;-93
2021/06/29 04:58:07;;;;;;;6.97;3.05;;;16.70;99.90;;;;;;5000731;28;20420;-92
2021/06/29 05:00:34;;;;;;;7.70;3.10;;;16.80;99.90;;;;;;5000604;28;20429;-93
2021/06/29 05:03:03;;;;;;;6.45;2.85;;;16.90;99.90;;;;;;5000231;28;20433;-94
2021/06/29 05:05:31;;;;;;;6.50;3.17;;;16.90;99.90;;;;;;5000814;28;20435;-93
2021/06/29 05:07:58;;;;;;;5.63;2.92;;;17.00;99.90;;;;;;5000904;28;20417;-93
2021/06/29 05:10:25;;;;;;;5.80;2.70;;;17.10;99.90;;;;;;4999791;28;20429;-94
2021/06/29 05:12:52;;;;;;;4.50;3.03;;;17.10;99.90;;;;;;5000121;28;20436;-93
2021/06/29 05:15:19;;;;;;;9.00;3.03;;;17.10;99.90;;;;;;5000185;28;20443;-93
2021/06/29 05:17:46;;;;;;;5.35;3.20;;;17.20;99.90;;;;;;5000205;28;20432;-93
2021/06/29 05:20:13;;;;;;;5.22;3.15;;;17.30;99.90;;;;;;5000176;28;20429;-94
2021/06/29 05:22:41;;;;;;;5.10;3.17;;;17.30;99.90;;;;;;4984075;28;20420;-93
2021/06/29 05:25:09;;;;;;;8.15;3.50;;;17.30;99.90;;;;;;4999990;28;20432;-93
2021/06/29 05:27:40;;;;;;;6.45;3.47;;;17.30;99.90;;;;;;5000661;28;20421;-94
2021/06/29 05:30:08;;;;;;;6.03;3.35;;;17.30;99.90;;;;;;5000577;28;20801;-94
2021/06/29 05:32:36;;;;;;;9.05;3.72;;;17.20;99.90;;;;;;5003218;28;20421;-92
2021/06/29 05:35:04;;;;;;;5.93;3.40;;;17.20;99.90;;;;;;5010589;28;20441;-93
2021/06/29 05:37:31;;;;;;;6.97;3.70;;;17.10;99.90;;;;;;5000078;28;20424;-93
2021/06/29 05:39:58;;;;;;;5.25;3.58;;;17.10;99.90;;;;;;4999481;28;20433;-93
2021/06/29 05:42:25;;;;;;;7.15;3.60;;;17.20;99.90;;;;;;4999746;28;20421;-93
2021/06/29 05:44:52;;;;;;;8.60;3.75;;;17.10;99.90;;;;;;5000022;28;20431;-94
2021/06/29 05:47:20;;;;;;;6.47;3.72;;;17.10;99.90;;;;;;4999726;28;20425;-94
2021/06/29 05:49:48;;;;;;;8.35;3.83;;;17.10;99.90;;;;;;4999466;28;20829;-93
2021/06/29 05:52:15;;;;;;;5.72;3.53;;;17.20;99.90;;;;;;4999541;28;20427;-93
2021/06/29 05:54:44;;;;;;;5.97;3.55;;;17.20;99.90;;;;;;4999316;28;20508;-94
2021/06/29 05:57:14;;;;;;;5.85;3.50;;;17.20;99.90;;;;;;4999870;28;20428;-95
2021/06/29 05:59:42;;;;;;;7.38;3.63;;;17.20;99.90;;;;;;4999752;28;20431;-93
2021/06/29 06:02:10;;;;;;;5.65;3.55;;;17.10;99.90;;;;;;4999667;28;20425;-93
2021/06/29 06:04:38;;;;;;;6.65;3.95;;;17.10;99.90;;;;;;4999364;28;20429;-94
2021/06/29 06:07:05;;;;;;;9.35;4.40;;;17.10;99.90;;;;;;4999373;28;20436;-94
2021/06/29 06:09:34;;;;;;;9.07;3.97;;;17.10;99.90;;;;;;4999157;28;20428;-94
2021/06/29 06:12:01;;;;;;;7.13;4.00;;;17.10;99.90;;;;;;4999644;28;20452;-93
2021/06/29 06:14:28;;;;;;;6.03;4.65;;;17.10;99.90;;;;;;4999099;28;20436;-93
2021/06/29 06:16:57;;;;;;;7.88;4.50;;;17.10;99.90;;;;;;5016324;28;20437;-93
2021/06/29 06:19:24;;;;;;;8.68;5.55;;;17.00;99.90;;;;;;4999793;28;20484;-94
2021/06/29 06:21:52;;;;;;;8.60;5.20;;;16.90;99.90;;;;;;4999181;28;20428;-93
2021/06/29 06:24:19;;;;;;;7.25;5.30;;;16.90;99.90;;;;;;4999231;28;20774;-94
2021/06/29 06:26:46;;;;;;;8.70;5.97;;;16.90;99.90;;;;;;4998711;28;20429;-94
2021/06/29 06:29:13;;;;;;;8.35;5.53;;;16.90;99.90;;;;;;4999442;28;20480;-95
2021/06/29 06:31:40;;;;;;;11.02;6.25;;;16.90;99.90;;;;;;4999495;28;20429;-94
2021/06/29 06:34:07;;;;;;;8.35;5.93;;;16.90;99.90;;;;;;4999054;28;20425;-94
2021/06/29 06:36:35;;;;;;;8.53;6.30;;;16.90;99.90;;;;;;4998644;28;20955;-94
2021/06/29 06:39:02;;;;;;;7.85;6.35;;;16.90;99.90;;;;;;4998894;28;20432;-93
2021/06/29 06:41:29;;;;;;;11.40;6.65;;;16.90;99.90;;;;;;4999072;28;20429;-94
2021/06/29 06:43:56;;;;;;;8.73;6.10;;;17.00;99.90;;;;;;4998653;28;20421;-94
2021/06/29 06:46:23;;;;;;;7.00;5.43;;;17.00;99.90;;;;;;4998185;28;20767;-94
2021/06/29 06:48:50;;;;;;;7.95;5.88;;;17.10;99.90;;;;;;4998785;28;20479;-94
2021/06/29 06:51:18;;;;;;;7.65;5.55;;;17.10;99.90;;;;;;4999968;28;20428;-95
2021/06/29 06:53:46;;;;;;;8.88;5.35;;;17.10;99.90;;;;;;5000671;28;20420;-92
2021/06/29 06:56:16;;;;;;;9.27;5.78;;;17.10;99.90;;;;;;4998085;28;20437;-94
2021/06/29 06:58:44;;;;;;;8.48;5.72;;;17.00;99.90;;;;;;4998162;28;20428;-93
2021/06/29 07:01:13;;;;;;;7.57;6.28;;;17.00;99.90;;;;;;4998015;28;20425;-93
2021/06/29 07:03:43;;;;;;;7.93;6.38;;;17.00;99.90;;;;;;4998519;28;20433;-94
2021/06/29 07:06:12;;;;;;;18.33;7.85;;;16.90;99.90;;;;;;4998376;28;20428;-95
2021/06/29 07:08:40;;;;;;;13.90;9.55;;;16.90;99.90;;;;;;4997646;28;20976;-93
2021/06/29 07:11:08;;;;;;;12.57;10.82;;;16.60;99.90;;;;;;4997865;28;20428;-96
2021/06/29 17:34:24;;;;;;;32.10;5.17;;;18.60;99.90;;;;;;4905968;29;20441;-96
2021/06/29 17:37:13;;;;;;;428.05;27.92;;;16.40;99.90;;;;;;4915592;29;20431;-96
2021/06/29 17:40:08;;;;;;;942.35;56.90;;;15.50;99.90;;;;;;4941411;23;20443;-96
2021/06/29 17:43:02;;;;;;;47.15;4.75;;;14.60;99.90;;;;;;4865085;29;20526;-96
2021/06/29 17:45:48;;;;;;;22.83;4.70;;;14.40;99.90;;;;;;4860393;29;20438;-96
2021/06/29 17:48:49;;;;;;;28.55;5.25;;;14.60;99.90;;;;;;4894580;29;20495;-96
2021/06/29 17:51:33;;;;;;;8.05;2.35;;;14.80;99.90;;;;;;4878862;29;20443;-96
2021/06/29 17:54:10;;;;;;;7.55;1.70;;;14.60;99.90;;;;;;4876255;29;20425;-96
2021/06/29 17:59:58;;;;;;;601.22;28.00;;;14.20;99.90;;;;;;4929002;29;20440;-96
2021/06/29 18:06:26;;;;;;;9.07;3.00;;;13.80;99.90;;;;;;4932869;29;20425;-96
2021/06/29 18:15:23;;;;;;;9.63;3.95;;;13.50;99.90;;;;;;4931824;29;20433;-96
2021/06/29 18:19:13;;;;;;;;;;;;;;;;;;;;;
2021/06/29 18:26:24;;;;;;;;;;;;;;;;;;;;;
2021/06/29 18:29:33;;;;;;;9.68;3.30;;;13.60;99.90;;;;;;4810252;29;20446;-96
2021/06/29 18:32:06;;;;;;;13.73;3.60;;;13.60;99.90;;;;;;4799682;29;20486;-96
2021/06/29 18:34:42;;;;;;;6.40;2.90;;;13.60;99.90;;;;;;4799644;29;20435;-96
2021/06/29 18:37:16;;;;;;;6.32;3.08;;;13.40;99.90;;;;;;4797130;29;20544;-96
2021/06/29 18:39:56;;;;;;;18.40;4.15;;;13.40;99.90;;;;;;4793434;29;20992;-96
2021/06/29 18:43:03;;;;;;;31.13;5.63;;;13.40;99.90;;;;;;4796450;29;21009;-95
2021/06/29 18:46:07;;;;;;;15.90;4.77;;;13.40;99.90;;;;;;4792141;29;20531;-96
2021/06/29 18:48:44;;;;;;;18.20;5.30;;;13.30;99.90;;;;;;4812371;29;20434;-96
2021/06/29 18:51:14;;;;;;;479.73;25.73;;;13.20;99.90;;;;;;4798048;29;20446;-94
2021/06/29 18:53:42;;;;;;;8.20;4.60;;;13.20;99.90;;;;;;4799520;29;20445;-94
2021/06/29 18:56:41;;;;;;;748.45;36.00;;;13.20;99.90;;;;;;4857815;29;20449;-95
2021/06/29 18:59:32;;;;;;;730.55;31.15;;;13.30;99.90;;;;;;4870896;29;20435;-95
2021/06/29 19:02:12;;;;;;;982.80;42.58;;;13.40;99.90;;;;;;4873253;29;20405;-96
2021/06/29 19:05:00;;;;;;;29.90;11.35;;;13.30;99.90;;;;;;4846148;29;20464;-96
2021/06/29 19:07:31;;;;;;;14.98;8.55;;;13.20;99.90;;;;;;4928396;29;20433;-96
2021/06/29 19:10:14;;;;;;;16.42;7.72;;;13.10;99.90;;;;;;4910437;29;20537;-95
2021/06/29 19:12:42;;;;;;;12.63;6.78;;;13.10;99.90;;;;;;4925371;29;20439;-96
2021/06/29 19:15:38;;;;;;;14.03;7.60;;;13.00;99.90;;;;;;4911837;29;20439;-95
2021/06/29 19:18:13;;;;;;;16.10;7.82;;;13.00;99.90;;;;;;4909977;29;20433;-96
2021/06/29 19:20:44;;;;;;;16.92;9.07;;;13.00;99.90;;;;;;4921109;29;20429;-96
2021/06/29 19:23:35;;;;;;;16.05;8.73;;;13.00;99.90;;;;;;4911080;29;20931;-96
2021/06/29 19:26:11;;;;;;;25.02;10.25;;;13.00;99.90;;;;;;4921211;29;20448;-95
2021/06/29 19:28:42;;;;;;;19.73;10.60;;;13.00;99.90;;;;;;4919742;29;20508;-96
2021/06/29 19:31:19;;;;;;;102.63;15.55;;;13.10;99.90;;;;;;4925237;29;20434;-96
2021/06/29 19:33:59;;;;;;;129.98;19.02;;;13.00;99.90;;;;;;4923644;29;20432;-96
2021/06/29 19:36:40;;;;;;;32.90;14.10;;;13.00;99.90;;;;;;4918642;29;20449;-95
2021/06/29 19:39:57;;;;;;;;;;;;;;;;;;;;;
2021/06/29 19:42:52;;;;;;;29.45;14.95;;;13.00;99.90;;;;;;4927854;29;20437;-96
2021/06/29 19:45:22;;;;;;;30.13;15.65;;;12.90;99.90;;;;;;5030848;23;20439;-95
2021/06/29 19:47:53;;;;;;;25.48;14.57;;;13.00;99.90;;;;;;4937860;29;20438;-96
2021/06/29 19:50:22;;;;;;;143.07;22.10;;;12.90;99.90;;;;;;4940393;29;20431;-96
2021/06/29 19:53:02;;;;;;;62.47;17.30;;;13.00;99.90;;;;;;4937845;29;20750;-96
2021/06/29 19:56:00;;;;;;;279.20;28.00;;;13.00;99.90;;;;;;4939801;29;20581;-96
2021/06/29 19:58:39;;;;;;;673.97;44.58;;;13.10;99.90;;;;;;4941009;29;20582;-95
2021/06/29 20:01:38;;;;;;;25.65;14.20;;;13.00;99.90;;;;;;4930238;29;20420;-96
2021/06/29 20:04:16;;;;;;;962.83;51.63;;;12.90;99.90;;;;;;4937297;29;20926;-96
2021/06/29 20:07:00;;;;;;;1883.82;72.90;;;13.00;99.90;;;;;;4938768;29;20427;-96
2021/06/29 20:09:35;;;;;;;1680.57;64.22;;;12.90;99.90;;;;;;4941465;29;20436;-96
2021/06/29 20:12:56;;;;;;;1355.45;55.75;;;12.90;99.90;;;;;;4941995;29;20420;-96
2021/06/29 20:15:41;;;;;;;1999.90;71.00;;;12.90;99.90;;;;;;4924191;29;22347;-95
2021/06/29 20:18:20;;;;;;;1781.97;61.03;;;12.80;99.90;;;;;;4927712;29;20427;-96
2021/06/29 20:21:12;;;;;;;1904.25;79.38;;;12.80;99.90;;;;;;4940352;29;20427;-96
2021/06/29 20:23:49;;;;;;;1999.90;93.00;;;12.80;99.90;;;;;;4938270;29;20765;-96
2021/06/29 20:29:06;;;;;;;1687.03;80.35;;;12.80;99.90;;;;;;4929959;29;20437;-96
2021/06/29 20:31:43;;;;;;;1820.05;80.20;;;12.90;99.90;;;;;;4921740;29;21042;-96
2021/06/29 20:34:15;;;;;;;1991.03;76.18;;;12.90;99.90;;;;;;4921584;29;20935;-96
2021/06/29 20:37:00;;;;;;;1515.30;66.32;;;12.80;99.90;;;;;;4921800;29;20448;-96
2021/06/29 20:39:46;;;;;;;1999.90;78.07;;;12.80;99.90;;;;;;4921628;29;20456;-96
2021/06/29 20:42:25;;;;;;;1925.10;62.90;;;12.80;99.90;;;;;;4920413;29;20488;-96
2021/06/29 20:44:55;;;;;;;1811.10;57.15;;;12.80;99.90;;;;;;4922079;29;20471;-95
2021/06/29 20:47:22;;;;;;;1999.90;73.80;;;12.80;99.90;;;;;;4921282;29;20452;-96
2021/06/29 20:49:56;;;;;;;1999.90;86.30;;;12.80;99.90;;;;;;4920584;29;20513;-96
2021/06/29 20:52:41;;;;;;;1999.90;93.25;;;12.80;99.90;;;;;;4919439;29;20512;-96
2021/06/29 20:55:26;;;;;;;1936.82;79.07;;;12.80;99.90;;;;;;4920712;29;20448;-96
2021/06/29 20:58:00;;;;;;;1980.43;98.00;;;12.80;99.90;;;;;;4921061;29;20416;-95
2021/06/29 21:01:03;;;;;;;;;;;;;;;;;;;;;
2021/06/29 21:03:42;;;;;;;1954.35;94.85;;;12.60;99.90;;;;;;4920871;29;20799;-96
2021/06/29 21:06:30;;;;;;;1999.90;106.63;;;12.60;99.90;;;;;;4918255;29;20443;-95
2021/06/29 21:09:22;;;;;;;1999.90;111.00;;;12.60;99.90;;;;;;4915683;29;20467;-96
2021/06/29 21:11:49;;;;;;;1999.90;118.65;;;12.60;99.90;;;;;;4917330;29;20932;-95
2021/06/29 21:14:16;;;;;;;1999.90;135.85;;;12.60;99.90;;;;;;4916897;29;20440;-96
2021/06/29 21:16:49;;;;;;;1999.90;106.03;;;12.60;99.90;;;;;;4918229;29;20445;-96
2021/06/29 21:19:18;;;;;;;1999.90;110.35;;;12.60;99.90;;;;;;4921002;29;20429;-96
2021/06/29 21:22:03;;;;;;;1999.90;128.07;;;12.60;99.90;;;;;;4920984;29;20457;-95
2021/06/29 21:24:34;;;;;;;1999.90;110.10;;;12.60;99.90;;;;;;4920926;29;20429;-96
2021/06/29 21:27:01;;;;;;;1999.90;117.25;;;12.50;99.90;;;;;;4920192;29;20436;-94
2021/06/29 21:29:45;;;;;;;1999.90;127.43;;;12.50;99.90;;;;;;4919963;29;20460;-96
2021/06/29 21:32:16;;;;;;;1999.90;127.32;;;12.50;99.90;;;;;;4920042;29;20441;-95
2021/06/29 21:34:48;;;;;;;1894.47;103.20;;;12.40;99.90;;;;;;4920508;29;20424;-95
2021/06/29 21:37:26;;;;;;;1999.90;116.35;;;12.40;99.90;;;;;;4920478;29;20449;-95
2021/06/29 21:39:54;;;;;;;1999.90;162.13;;;12.40;99.90;;;;;;4919360;29;20421;-94
2021/06/29 21:42:24;;;;;;;1999.90;133.57;;;12.40;99.90;;;;;;4919420;29;20437;-96
2021/06/29 21:44:53;;;;;;;1495.90;105.10;;;12.40;99.90;;;;;;4907459;29;20790;-96
2021/06/29 21:47:25;;;;;;;1999.90;96.97;;;12.40;99.90;;;;;;4902177;29;20515;-94
2021/06/29 21:49:53;;;;;;;1559.38;113.63;;;12.40;99.90;;;;;;4900980;29;20470;-96
2021/06/29 21:52:29;;;;;;;1999.90;134.60;;;12.40;99.90;;;;;;4901371;29;20442;-95
2021/06/29 21:54:59;;;;;;;1999.90;138.18;;;12.30;99.90;;;;;;4900789;29;20431;-96
2021/06/29 21:57:26;;;;;;;1502.38;106.22;;;12.30;99.90;;;;;;4900502;29;20447;-96
2021/06/29 22:00:01;;;;;;;1874.57;108.07;;;12.30;99.90;;;;;;4900485;29;20498;-95
2021/06/29 22:02:29;;;;;;;584.50;64.03;;;12.30;99.90;;;;;;4900136;29;20987;-95
2021/06/29 22:05:01;;;;;;;114.15;41.17;;;12.20;99.90;;;;;;4910646;29;20439;-95
2021/06/29 22:08:04;;;;;;;;;;;;;;;;;;;;;
2021/06/29 22:10:57;;;;;;;117.72;40.97;;;12.20;99.90;;;;;;4900928;29;20490;-96
2021/06/29 22:13:29;;;;;;;82.90;34.67;;;12.20;99.90;;;;;;4899763;29;20628;-96
2021/06/29 22:16:13;;;;;;;110.82;40.45;;;12.20;99.90;;;;;;4902120;29;20999;-96
2021/06/29 22:18:46;;;;;;;74.78;30.98;;;12.30;99.90;;;;;;4900217;29;20473;-96
2021/06/29 22:21:35;;;;;;;82.60;32.78;;;12.30;99.90;;;;;;4900646;29;21109;-95
2021/06/29 22:24:25;;;;;;;75.30;31.85;;;12.30;99.90;;;;;;4887797;29;20514;-96
2021/06/29 22:27:25;;;;;;;;;;;;;;;;;;;;;
2021/06/29 22:30:02;;;;;;;1032.55;73.30;;;12.20;99.90;;;;;;4901583;29;20438;-96
2021/06/29 22:32:35;;;;;;;1999.90;113.77;;;12.20;99.90;;;;;;4900616;29;20439;-95
2021/06/29 22:35:17;;;;;;;76.57;32.50;;;12.20;99.90;;;;;;4898792;29;20423;-95
2021/06/29 22:37:53;;;;;;;85.40;33.35;;;12.20;99.90;;;;;;4900493;29;20474;-96
2021/06/29 22:40:34;;;;;;;;;;;;;;;;;;;;;
2021/06/29 22:43:08;;;;;;;83.47;33.70;;;12.20;99.90;;;;;;4901731;29;20539;-96
2021/06/29 22:46:22;;;;;;;77.40;34.85;;;12.10;99.90;;;;;;4901191;29;20438;-95
2021/06/29 22:48:49;;;;;;;1308.13;92.78;;;12.10;99.90;;;;;;4901330;29;20438;-95
2021/06/29 22:51:22;;;;;;;86.82;35.95;;;12.10;99.90;;;;;;4900613;29;20788;-95
2021/06/29 22:53:52;;;;;;;109.75;39.10;;;12.10;99.90;;;;;;4899993;29;20900;-95
2021/06/29 22:56:22;;;;;;;104.43;38.90;;;12.10;99.90;;;;;;4899685;29;20449;-96
2021/06/29 22:59:02;;;;;;;78.55;36.20;;;12.10;99.90;;;;;;4901777;29;20435;-96
2021/06/29 23:01:34;;;;;;;90.13;38.75;;;12.10;99.90;;;;;;4900851;29;20431;-95
2021/06/29 23:04:10;;;;;;;103.57;40.53;;;12.00;99.90;;;;;;4904647;29;20415;-95
2021/06/29 23:06:39;;;;;;;102.63;40.03;;;12.10;99.90;;;;;;4904284;29;20446;-95
2021/06/29 23:09:11;;;;;;;594.15;63.72;;;12.10;99.90;;;;;;4902063;29;20567;-96
2021/06/29 23:11:39;;;;;;;104.75;40.78;;;12.00;99.90;;;;;;4902780;29;20446;-94
2021/06/29 23:14:34;;;;;;;97.22;40.03;;;12.00;99.90;;;;;;4953847;23;20976;-96
2021/06/29 23:17:06;;;;;;;95.85;39.22;;;12.00;99.90;;;;;;4883369;29;20420;-96
2021/06/29 23:19:34;;;;;;;93.47;38.97;;;12.00;99.90;;;;;;4866696;29;20436;-95
2021/06/29 23:22:22;;;;;;;98.65;40.10;;;12.00;99.90;;;;;;4868420;29;20436;-96
2021/06/29 23:25:18;;;;;;;97.87;41.63;;;11.90;99.90;;;;;;4866252;29;20497;-96
2021/06/29 23:27:48;;;;;;;118.00;46.97;;;12.00;99.90;;;;;;4844643;29;20444;-95
2021/06/29 23:30:33;;;;;;;112.17;46.23;;;12.00;99.90;;;;;;4829462;29;20443;-96
2021/06/29 23:33:38;;;;;;;121.50;45.77;;;11.90;99.90;;;;;;4833258;29;20499;-96
2021/06/29 23:36:31;;;;;;;127.53;48.83;;;12.00;99.90;;;;;;4825544;29;21076;-96
2021/06/29 23:39:16;;;;;;;;;;;;;;;;;;;;;
2021/06/29 23:42:15;;;;;;;138.10;51.83;;;12.00;99.90;;;;;;4844866;29;20484;-96
2021/06/29 23:45:04;;;;;;;146.45;51.60;;;11.90;99.90;;;;;;4849150;29;20472;-96
2021/06/29 23:47:35;;;;;;;136.43;51.03;;;12.00;99.90;;;;;;4835099;29;20440;-96
2021/06/29 23:50:14;;;;;;;123.72;48.33;;;12.00;99.90;;;;;;4883662;23;20434;-96
2021/06/29 23:52:55;;;;;;;135.50;50.75;;;11.90;99.90;;;;;;4881684;29;20469;-95
2021/06/29 23:55:51;;;;;;;137.00;50.60;;;11.90;99.90;;;;;;4887534;29;20458;-96
2021/06/29 23:58:51;;;;;;;110.05;44.67;;;11.90;99.90;;;;;;4884466;29;20462;-95
